Time;durP1;ratioP1;P1;durP2;ratioP2;P2;SDS_P1;SDS_P2;PMS_P1;PMS_P2;Temp;Humidity;BMP_temperature;BMP_pressure;BME280_temperature;BME280_humidity;BME280_pressure;Samples;Min_cycle;Max_cycle;Signal;HPM_P1;HPM_P2
2021/03/29 00:00:46;;;;;;;11.63;3.75;;;;;;;;;;5065331;28;20052;-63
2021/03/29 00:03:15;;;;;;;7.57;3.28;;;;;;;;;;5067815;28;20184;-63
2021/03/29 00:05:42;;;;;;;8.68;3.30;;;;;;;;;;5062064;28;20904;-63
2021/03/29 00:08:10;;;;;;;8.20;3.55;;;;;;;;;;5066607;28;20549;-64
2021/03/29 00:10:39;;;;;;;9.70;4.18;;;;;;;;;;5065938;28;20413;-63
2021/03/29 00:13:06;;;;;;;5.93;3.35;;;;;;;;;;5067079;28;20159;-63
2021/03/29 00:15:36;;;;;;;9.23;3.22;;;;;;;;;;5062158;28;20579;-63
2021/03/29 00:18:05;;;;;;;9.25;3.53;;;;;;;;;;5047009;28;20141;-63
2021/03/29 00:20:33;;;;;;;9.63;3.25;;;;;;;;;;5048158;28;20095;-63
2021/03/29 00:23:01;;;;;;;9.13;3.25;;;;;;;;;;5060172;28;20162;-63
2021/03/29 00:25:30;;;;;;;6.93;3.13;;;;;;;;;;5057609;28;20049;-64
2021/03/29 00:27:58;;;;;;;7.45;3.03;;;;;;;;;;5047589;28;20128;-63
2021/03/29 00:30:26;;;;;;;5.50;3.35;;;;;;;;;;5050205;28;20037;-63
2021/03/29 00:32:54;;;;;;;10.68;3.35;;;;;;;;;;5065015;28;20055;-63
2021/03/29 00:35:23;;;;;;;10.02;3.45;;;;;;;;;;5056887;28;20041;-63
2021/03/29 00:37:52;;;;;;;5.50;3.50;;;;;;;;;;5056815;28;20127;-63
2021/03/29 00:40:20;;;;;;;5.38;3.33;;;;;;;;;;5057993;28;20059;-63
2021/03/29 00:42:50;;;;;;;8.82;3.28;;;;;;;;;;5047213;28;20067;-64
2021/03/29 00:45:19;;;;;;;8.38;2.95;;;;;;;;;;5052097;28;20495;-63
2021/03/29 00:47:46;;;;;;;8.60;3.30;;;;;;;;;;5064688;28;20051;-64
2021/03/29 00:50:14;;;;;;;8.35;3.63;;;;;;;;;;5052710;28;20369;-64
2021/03/29 00:52:42;;;;;;;6.20;3.10;;;;;;;;;;5058569;28;20583;-63
2021/03/29 00:55:12;;;;;;;8.20;3.55;;;;;;;;;;5054466;28;20487;-63
2021/03/29 00:57:40;;;;;;;4.25;2.80;;;;;;;;;;5059127;28;20107;-63
2021/03/29 01:00:13;;;;;;;10.40;3.70;;;;;;;;;;5063278;28;20100;-64
2021/03/29 01:02:41;;;;;;;9.40;3.70;;;;;;;;;;5063791;23;20131;-60
2021/03/29 01:05:11;;;;;;;5.28;3.03;;;;;;;;;;5017927;28;20045;-60
2021/03/29 01:07:39;;;;;;;6.10;3.03;;;;;;;;;;5024949;28;20077;-61
2021/03/29 01:10:07;;;;;;;5.53;3.13;;;;;;;;;;5026297;28;20045;-61
2021/03/29 01:12:35;;;;;;;4.85;3.10;;;;;;;;;;5027131;28;20053;-60
2021/03/29 01:15:04;;;;;;;7.38;3.65;;;;;;;;;;5025174;28;20053;-60
2021/03/29 01:17:34;;;;;;;6.32;3.30;;;;;;;;;;5025323;28;20041;-60
2021/03/29 01:20:07;;;;;;;5.65;3.58;;;;;;;;;;5026916;28;20076;-61
2021/03/29 01:22:36;;;;;;;5.65;3.20;;;;;;;;;;5026329;28;20104;-60
2021/03/29 01:25:07;;;;;;;10.25;3.80;;;;;;;;;;5026086;28;20064;-60
2021/03/29 01:27:38;;;;;;;5.80;3.40;;;;;;;;;;5025554;28;20203;-60
2021/03/29 01:30:07;;;;;;;5.35;3.28;;;;;;;;;;5027056;28;20235;-60
2021/03/29 01:32:35;;;;;;;7.03;3.17;;;;;;;;;;5025786;28;20611;-61
2021/03/29 01:35:06;;;;;;;11.00;3.10;;;;;;;;;;5027095;28;20147;-61
2021/03/29 01:37:34;;;;;;;7.63;3.35;;;;;;;;;;5024959;28;20140;-60
2021/03/29 01:40:01;;;;;;;9.00;3.47;;;;;;;;;;5026830;28;20085;-60
2021/03/29 01:42:28;;;;;;;8.48;3.63;;;;;;;;;;5024799;28;20140;-60
2021/03/29 01:44:57;;;;;;;11.43;3.58;;;;;;;;;;5026568;28;20045;-60
2021/03/29 01:47:24;;;;;;;23.13;3.65;;;;;;;;;;5023879;28;20056;-60
2021/03/29 01:49:51;;;;;;;6.13;3.13;;;;;;;;;;5025499;28;20054;-60
2021/03/29 01:52:19;;;;;;;9.85;3.38;;;;;;;;;;5025653;28;20049;-60
2021/03/29 01:54:47;;;;;;;9.25;3.90;;;;;;;;;;5025782;28;20324;-60
2021/03/29 01:57:14;;;;;;;7.32;3.35;;;;;;;;;;5023435;28;20084;-61
2021/03/29 01:59:42;;;;;;;5.93;2.90;;;;;;;;;;5024653;28;20376;-60
2021/03/29 02:02:10;;;;;;;7.50;3.55;;;;;;;;;;5022652;28;20555;-60
2021/03/29 02:04:37;;;;;;;9.50;3.80;;;;;;;;;;5025671;28;20060;-60
2021/03/29 02:07:06;;;;;;;8.07;3.47;;;;;;;;;;5024268;28;20058;-61
2021/03/29 02:09:34;;;;;;;10.05;4.13;;;;;;;;;;5025055;28;20401;-60
2021/03/29 02:12:02;;;;;;;6.47;3.33;;;;;;;;;;5025053;28;20367;-60
2021/03/29 02:14:29;;;;;;;7.97;3.38;;;;;;;;;;5025498;28;20046;-60
2021/03/29 02:16:57;;;;;;;6.07;3.03;;;;;;;;;;5025284;28;20112;-60
2021/03/29 02:19:26;;;;;;;7.35;2.92;;;;;;;;;;5024753;28;20544;-60
2021/03/29 02:21:55;;;;;;;8.93;3.40;;;;;;;;;;5025569;28;20132;-60
2021/03/29 02:24:22;;;;;;;8.85;3.50;;;;;;;;;;5014653;28;20523;-61
2021/03/29 02:26:50;;;;;;;6.47;3.53;;;;;;;;;;5021201;28;20684;-61
2021/03/29 02:29:19;;;;;;;7.43;3.40;;;;;;;;;;5024626;28;20140;-61
2021/03/29 02:31:46;;;;;;;5.55;3.08;;;;;;;;;;5024081;28;20076;-61
2021/03/29 02:34:14;;;;;;;6.82;3.05;;;;;;;;;;5025527;28;20077;-61
2021/03/29 02:36:43;;;;;;;10.35;3.45;;;;;;;;;;5023428;28;20053;-61
2021/03/29 02:39:11;;;;;;;9.48;3.70;;;;;;;;;;5024170;28;20060;-61
2021/03/29 02:41:38;;;;;;;6.25;3.13;;;;;;;;;;5024365;28;20453;-61
2021/03/29 02:44:06;;;;;;;6.55;2.95;;;;;;;;;;5025117;28;20476;-62
2021/03/29 02:46:35;;;;;;;8.02;3.90;;;;;;;;;;5024258;28;20555;-62
2021/03/29 02:49:04;;;;;;;6.90;3.40;;;;;;;;;;5024988;28;20150;-62
2021/03/29 02:51:32;;;;;;;7.38;3.33;;;;;;;;;;5024902;28;20083;-61
2021/03/29 02:54:02;;;;;;;6.18;3.00;;;;;;;;;;5025466;28;20046;-61
2021/03/29 02:56:32;;;;;;;6.45;3.75;;;;;;;;;;5024255;28;20045;-61
2021/03/29 02:59:01;;;;;;;7.03;3.75;;;;;;;;;;5024386;28;20408;-62
2021/03/29 03:01:29;;;;;;;10.88;3.50;;;;;;;;;;5024152;28;20770;-62
2021/03/29 03:03:57;;;;;;;7.13;3.67;;;;;;;;;;5024370;28;20135;-62
2021/03/29 03:06:25;;;;;;;9.77;3.33;;;;;;;;;;5025000;28;20053;-62
2021/03/29 03:08:53;;;;;;;8.75;3.35;;;;;;;;;;5023056;28;20105;-62
2021/03/29 03:11:21;;;;;;;9.38;3.65;;;;;;;;;;5009197;28;20140;-61
2021/03/29 03:13:49;;;;;;;7.18;2.67;;;;;;;;;;5025028;28;20053;-62
2021/03/29 03:16:17;;;;;;;5.88;3.30;;;;;;;;;;5025114;28;20045;-62
2021/03/29 03:18:47;;;;;;;6.60;3.67;;;;;;;;;;5025139;28;20053;-62
2021/03/29 03:21:15;;;;;;;10.20;3.67;;;;;;;;;;5013520;28;20049;-62
2021/03/29 03:23:50;;;;;;;10.50;4.05;;;;;;;;;;5028969;28;20132;-62
2021/03/29 03:26:18;;;;;;;9.05;3.42;;;;;;;;;;5027931;28;20124;-62
2021/03/29 03:28:46;;;;;;;8.93;3.72;;;;;;;;;;5028071;28;20049;-62
2021/03/29 03:31:13;;;;;;;7.40;3.70;;;;;;;;;;5028559;28;20055;-62
2021/03/29 03:33:40;;;;;;;8.85;3.35;;;;;;;;;;5029054;28;20072;-62
2021/03/29 03:36:08;;;;;;;10.07;3.67;;;;;;;;;;5028578;28;20081;-62
2021/03/29 03:38:36;;;;;;;9.77;3.38;;;;;;;;;;5023769;28;20200;-62
2021/03/29 03:41:06;;;;;;;9.65;3.72;;;;;;;;;;5026907;28;20394;-62
2021/03/29 03:43:36;;;;;;;10.70;3.92;;;;;;;;;;5029083;28;20147;-61
2021/03/29 03:46:06;;;;;;;7.45;3.33;;;;;;;;;;5027591;28;20047;-61
2021/03/29 03:48:34;;;;;;;7.32;3.67;;;;;;;;;;5023601;28;20277;-62
2021/03/29 03:51:02;;;;;;;8.45;3.25;;;;;;;;;;5028240;28;20041;-62
2021/03/29 03:53:29;;;;;;;10.38;3.70;;;;;;;;;;5026063;28;20129;-62
2021/03/29 03:55:58;;;;;;;7.47;3.50;;;;;;;;;;5028271;28;20136;-62
2021/03/29 03:58:25;;;;;;;8.15;3.45;;;;;;;;;;5027804;28;20038;-62
2021/03/29 04:00:55;;;;;;;18.20;3.53;;;;;;;;;;5027378;28;20583;-62
2021/03/29 04:03:24;;;;;;;9.23;3.60;;;;;;;;;;5027017;28;20376;-62
2021/03/29 04:05:52;;;;;;;12.43;3.88;;;;;;;;;;5028728;28;20049;-62
2021/03/29 04:08:40;;;;;;;16.45;3.50;;;;;;;;;;5025919;28;20338;-62
2021/03/29 04:11:08;;;;;;;17.02;4.25;;;;;;;;;;5026932;28;20103;-60
2021/03/29 04:13:36;;;;;;;10.55;4.82;;;;;;;;;;5028230;28;20056;-61
2021/03/29 04:16:04;;;;;;;9.57;3.47;;;;;;;;;;5027919;28;20382;-61
2021/03/29 04:18:32;;;;;;;10.15;3.15;;;;;;;;;;5027097;28;20564;-61
2021/03/29 04:21:00;;;;;;;8.50;3.47;;;;;;;;;;5028448;28;20061;-61
2021/03/29 04:23:29;;;;;;;9.90;3.80;;;;;;;;;;5027501;28;20049;-61
2021/03/29 04:25:56;;;;;;;16.75;3.88;;;;;;;;;;5028564;28;20115;-61
2021/03/29 04:28:24;;;;;;;11.05;4.15;;;;;;;;;;5027293;28;20111;-62
2021/03/29 04:30:52;;;;;;;13.27;3.80;;;;;;;;;;5026899;28;20053;-62
2021/03/29 04:33:22;;;;;;;13.82;3.65;;;;;;;;;;5026326;28;20353;-62
2021/03/29 04:35:51;;;;;;;8.10;3.50;;;;;;;;;;5027632;28;20404;-62
2021/03/29 04:38:18;;;;;;;9.15;3.42;;;;;;;;;;5026642;28;20144;-62
2021/03/29 04:40:46;;;;;;;9.25;3.17;;;;;;;;;;5014702;28;20088;-61
2021/03/29 04:43:14;;;;;;;12.27;3.88;;;;;;;;;;5027588;28;20051;-61
2021/03/29 04:45:41;;;;;;;10.73;3.72;;;;;;;;;;5023279;28;20135;-61
2021/03/29 04:48:10;;;;;;;11.27;3.50;;;;;;;;;;5025961;28;20081;-61
2021/03/29 04:50:37;;;;;;;6.60;3.58;;;;;;;;;;5028013;28;20045;-61
2021/03/29 04:53:06;;;;;;;7.30;3.25;;;;;;;;;;5026710;28;20041;-62
2021/03/29 04:55:33;;;;;;;14.43;3.90;;;;;;;;;;5027817;28;20469;-62
2021/03/29 04:58:00;;;;;;;12.38;4.43;;;;;;;;;;5026657;28;20142;-62
2021/03/29 05:00:28;;;;;;;17.23;4.45;;;;;;;;;;5026958;28;20328;-62
2021/03/29 05:02:55;;;;;;;9.57;4.03;;;;;;;;;;5026732;28;20384;-62
2021/03/29 05:05:22;;;;;;;12.48;3.75;;;;;;;;;;5025912;28;20341;-62
2021/03/29 05:07:50;;;;;;;12.48;3.97;;;;;;;;;;5025088;28;20267;-62
2021/03/29 05:10:18;;;;;;;7.80;3.30;;;;;;;;;;5025784;28;20477;-62
2021/03/29 05:12:45;;;;;;;14.70;3.90;;;;;;;;;;5025917;28;20048;-62
2021/03/29 05:15:16;;;;;;;11.02;3.80;;;;;;;;;;5019744;28;20061;-62
2021/03/29 05:17:44;;;;;;;9.90;4.68;;;;;;;;;;5026511;28;20107;-62
2021/03/29 05:20:12;;;;;;;11.93;3.83;;;;;;;;;;5026156;28;20398;-62
2021/03/29 05:22:39;;;;;;;5.80;3.30;;;;;;;;;;5025830;28;20054;-63
2021/03/29 05:25:07;;;;;;;9.50;3.50;;;;;;;;;;5027825;28;20128;-62
2021/03/29 05:27:35;;;;;;;7.93;3.47;;;;;;;;;;5025741;28;20132;-62
2021/03/29 05:30:03;;;;;;;12.07;4.18;;;;;;;;;;5022170;28;20041;-62
2021/03/29 05:32:30;;;;;;;6.93;2.95;;;;;;;;;;5019773;28;20061;-62
2021/03/29 05:35:00;;;;;;;9.95;3.63;;;;;;;;;;5022880;28;20097;-63
2021/03/29 05:37:28;;;;;;;12.98;3.55;;;;;;;;;;5023668;28;20042;-62
2021/03/29 05:39:56;;;;;;;13.93;3.75;;;;;;;;;;5022776;28;20116;-62
2021/03/29 05:42:24;;;;;;;10.30;3.58;;;;;;;;;;5007419;28;20404;-62
2021/03/29 05:44:53;;;;;;;12.20;3.50;;;;;;;;;;5024399;28;20053;-62
2021/03/29 05:47:21;;;;;;;7.85;2.85;;;;;;;;;;5015139;28;20572;-62
2021/03/29 05:49:52;;;;;;;18.17;4.10;;;;;;;;;;5061101;28;20052;-62
2021/03/29 05:52:20;;;;;;;10.77;4.70;;;;;;;;;;5053446;28;20514;-62
2021/03/29 05:54:47;;;;;;;16.13;3.83;;;;;;;;;;5059826;28;20194;-62
2021/03/29 05:57:17;;;;;;;12.40;3.30;;;;;;;;;;5056732;28;20053;-61
2021/03/29 05:59:44;;;;;;;10.50;3.58;;;;;;;;;;5058652;28;20098;-61
2021/03/29 06:02:26;;;;;;;11.75;3.50;;;;;;;;;;5057618;28;20044;-61
2021/03/29 06:04:53;;;;;;;8.55;3.40;;;;;;;;;;5059130;28;20484;-61
2021/03/29 06:07:22;;;;;;;6.28;3.10;;;;;;;;;;5056287;28;20133;-61
2021/03/29 06:09:51;;;;;;;8.90;3.38;;;;;;;;;;5058615;28;20067;-61
2021/03/29 06:12:19;;;;;;;23.30;3.42;;;;;;;;;;5057784;28;20051;-60
2021/03/29 06:14:47;;;;;;;15.10;4.25;;;;;;;;;;5057843;28;20050;-62
2021/03/29 06:17:21;;;;;;;12.07;3.40;;;;;;;;;;5056716;28;20600;-61
2021/03/29 06:19:50;;;;;;;14.50;3.22;;;;;;;;;;5057106;28;20661;-61
2021/03/29 06:22:22;;;;;;;9.63;3.35;;;;;;;;;;5056581;28;20048;-61
2021/03/29 06:24:56;;;;;;;14.57;3.30;;;;;;;;;;5060985;28;20744;-61
2021/03/29 06:27:24;;;;;;;15.52;3.42;;;;;;;;;;5057570;28;20103;-61
2021/03/29 06:29:52;;;;;;;7.93;3.08;;;;;;;;;;5058519;28;20539;-61
2021/03/29 06:32:20;;;;;;;7.03;3.08;;;;;;;;;;5058280;28;20070;-61
2021/03/29 06:34:48;;;;;;;12.23;2.88;;;;;;;;;;5058064;28;20157;-61
2021/03/29 06:37:20;;;;;;;12.77;2.95;;;;;;;;;;5056720;28;20858;-61
2021/03/29 06:39:48;;;;;;;6.85;2.90;;;;;;;;;;5054521;28;20068;-61
2021/03/29 06:42:16;;;;;;;10.57;3.05;;;;;;;;;;5050903;28;20245;-61
2021/03/29 06:44:43;;;;;;;25.88;3.33;;;;;;;;;;5058573;28;20049;-62
2021/03/29 06:47:12;;;;;;;12.52;3.33;;;;;;;;;;5021604;28;20042;-61
2021/03/29 06:49:42;;;;;;;9.77;3.08;;;;;;;;;;5022102;28;20041;-61
2021/03/29 06:52:26;;;;;;;12.32;3.50;;;;;;;;;;5021713;28;20140;-61
2021/03/29 06:54:53;;;;;;;17.52;3.83;;;;;;;;;;5020298;28;20417;-61
2021/03/29 06:57:30;;;;;;;9.25;3.55;;;;;;;;;;5019845;28;20595;-61
2021/03/29 06:59:58;;;;;;;9.63;3.00;;;;;;;;;;5022466;28;20052;-61
2021/03/29 07:02:39;;;;;;;9.88;3.20;;;;;;;;;;5020803;28;20119;-61
2021/03/29 07:05:09;;;;;;;10.82;3.17;;;;;;;;;;5020881;28;20404;-61
2021/03/29 07:07:39;;;;;;;10.00;3.72;;;;;;;;;;5020384;28;20057;-61
2021/03/29 07:10:07;;;;;;;13.43;2.85;;;;;;;;;;5021350;28;20045;-61
2021/03/29 07:12:38;;;;;;;9.55;3.30;;;;;;;;;;5020648;28;20061;-61
2021/03/29 07:15:07;;;;;;;8.00;2.42;;;;;;;;;;5021915;28;20468;-61
2021/03/29 07:17:37;;;;;;;5.07;2.80;;;;;;;;;;5019710;28;20054;-62
2021/03/29 07:20:05;;;;;;;11.05;3.03;;;;;;;;;;5020565;28;20452;-61
2021/03/29 07:22:36;;;;;;;8.82;3.60;;;;;;;;;;5019913;28;20635;-61
2021/03/29 07:25:04;;;;;;;9.02;2.72;;;;;;;;;;5021561;28;20049;-63
2021/03/29 07:27:38;;;;;;;8.02;3.00;;;;;;;;;;5015696;28;20053;-61
2021/03/29 07:30:06;;;;;;;5.90;2.60;;;;;;;;;;5011563;28;20472;-61
2021/03/29 07:32:34;;;;;;;7.70;2.85;;;;;;;;;;5018804;28;20049;-61
2021/03/29 07:35:03;;;;;;;7.13;2.97;;;;;;;;;;5009581;28;20609;-61
2021/03/29 07:37:37;;;;;;;11.75;2.92;;;;;;;;;;5007850;28;20049;-61
2021/03/29 07:40:07;;;;;;;7.95;3.17;;;;;;;;;;5021126;28;20072;-61
2021/03/29 07:42:36;;;;;;;6.93;2.33;;;;;;;;;;5012435;28;20341;-61
2021/03/29 07:45:05;;;;;;;6.90;2.67;;;;;;;;;;5023791;28;20049;-62
2021/03/29 07:47:40;;;;;;;8.40;3.20;;;;;;;;;;5014043;28;20060;-62
2021/03/29 07:50:10;;;;;;;7.28;2.40;;;;;;;;;;5024094;28;20046;-61
2021/03/29 07:52:43;;;;;;;8.88;2.60;;;;;;;;;;5023050;28;20123;-61
2021/03/29 07:55:18;;;;;;;8.40;2.60;;;;;;;;;;5016877;28;20045;-60
2021/03/29 07:58:09;;;;;;;6.45;2.78;;;;;;;;;;5017282;28;20061;-62
2021/03/29 08:00:48;;;;;;;5.90;2.67;;;;;;;;;;5022581;28;20053;-60
2021/03/29 08:03:34;;;;;;;7.88;2.30;;;;;;;;;;5013088;28;20057;-61
2021/03/29 08:06:02;;;;;;;5.47;2.30;;;;;;;;;;5014411;28;20160;-61
2021/03/29 08:08:43;;;;;;;6.80;2.42;;;;;;;;;;5022109;28;20045;-61
2021/03/29 08:11:12;;;;;;;5.57;2.25;;;;;;;;;;5026080;28;20042;-61
2021/03/29 08:13:41;;;;;;;3.92;2.10;;;;;;;;;;5026071;28;20045;-61
2021/03/29 08:16:10;;;;;;;12.02;2.60;;;;;;;;;;5015303;28;20060;-61
2021/03/29 08:18:56;;;;;;;8.23;2.20;;;;;;;;;;5019374;28;20050;-61
2021/03/29 08:21:57;;;;;;;13.57;1.95;;;;;;;;;;5026009;28;20050;-61
2021/03/29 08:24:29;;;;;;;7.45;2.90;;;;;;;;;;4959188;28;20043;-61
2021/03/29 08:26:58;;;;;;;3.95;1.92;;;;;;;;;;4963023;28;20105;-61
2021/03/29 08:29:31;;;;;;;9.88;2.22;;;;;;;;;;4989865;28;20053;-60
2021/03/29 08:31:59;;;;;;;3.20;1.95;;;;;;;;;;5023410;28;20048;-61
2021/03/29 08:34:27;;;;;;;8.77;2.25;;;;;;;;;;5026415;28;20061;-61
2021/03/29 08:36:55;;;;;;;5.43;2.40;;;;;;;;;;5027037;28;20575;-60
2021/03/29 08:39:23;;;;;;;7.35;2.20;;;;;;;;;;5027080;28;20053;-61
2021/03/29 08:41:52;;;;;;;3.55;2.00;;;;;;;;;;5021411;28;20054;-61
2021/03/29 08:44:20;;;;;;;5.82;1.70;;;;;;;;;;5026933;28;20111;-61
2021/03/29 08:46:50;;;;;;;10.02;2.40;;;;;;;;;;5023925;28;20054;-61
2021/03/29 08:49:18;;;;;;;9.23;1.88;;;;;;;;;;5026236;28;20061;-61
2021/03/29 08:51:46;;;;;;;6.30;1.85;;;;;;;;;;5025809;28;20061;-61
2021/03/29 08:54:14;;;;;;;6.13;2.00;;;;;;;;;;5015388;28;20669;-61
2021/03/29 08:56:42;;;;;;;7.38;2.00;;;;;;;;;;5023222;28;20050;-61
2021/03/29 08:59:11;;;;;;;6.65;2.22;;;;;;;;;;5022731;28;20562;-61
2021/03/29 09:01:40;;;;;;;4.97;1.95;;;;;;;;;;5020798;28;20055;-61
2021/03/29 09:04:09;;;;;;;7.00;2.10;;;;;;;;;;5025314;28;20057;-61
2021/03/29 09:06:37;;;;;;;7.72;2.03;;;;;;;;;;5026036;28;20115;-62
2021/03/29 09:09:12;;;;;;;9.35;2.28;;;;;;;;;;5017093;28;20061;-62
2021/03/29 09:11:41;;;;;;;3.95;1.60;;;;;;;;;;5026240;28;20049;-62
2021/03/29 09:14:09;;;;;;;3.97;1.92;;;;;;;;;;5021687;28;20049;-59
2021/03/29 09:16:38;;;;;;;4.90;1.80;;;;;;;;;;5025658;28;20053;-60
2021/03/29 09:19:17;;;;;;;6.50;1.80;;;;;;;;;;5021528;28;20577;-61
2021/03/29 09:21:45;;;;;;;7.07;2.17;;;;;;;;;;5020375;28;20045;-61
2021/03/29 09:24:17;;;;;;;9.73;2.55;;;;;;;;;;5016898;28;20045;-60
2021/03/29 09:26:45;;;;;;;6.70;2.38;;;;;;;;;;5025902;28;20433;-61
2021/03/29 09:29:32;;;;;;;8.23;2.08;;;;;;;;;;5024172;28;20130;-61
2021/03/29 09:32:06;;;;;;;8.82;2.28;;;;;;;;;;5025936;28;20056;-61
2021/03/29 09:34:35;;;;;;;3.78;2.00;;;;;;;;;;5022005;28;20045;-61
2021/03/29 09:37:03;;;;;;;6.68;1.98;;;;;;;;;;5024809;28;20046;-62
2021/03/29 09:39:34;;;;;;;7.10;2.28;;;;;;;;;;5019084;28;20412;-62
2021/03/29 09:42:03;;;;;;;8.05;2.30;;;;;;;;;;5024645;28;20080;-62
2021/03/29 09:44:30;;;;;;;4.93;2.22;;;;;;;;;;5023562;28;20037;-61
2021/03/29 09:46:59;;;;;;;5.60;1.92;;;;;;;;;;5025315;28;20045;-61
2021/03/29 09:49:29;;;;;;;4.10;2.05;;;;;;;;;;5023169;28;20060;-61
2021/03/29 09:52:04;;;;;;;7.45;2.33;;;;;;;;;;5023680;28;20060;-61
2021/03/29 09:54:33;;;;;;;7.38;2.65;;;;;;;;;;5025439;28;20072;-61
2021/03/29 09:57:12;;;;;;;8.90;2.00;;;;;;;;;;5025817;28;20049;-61
2021/03/29 09:59:41;;;;;;;9.15;2.35;;;;;;;;;;5025635;28;20085;-61
2021/03/29 10:02:13;;;;;;;7.05;2.20;;;;;;;;;;5020803;28;20144;-61
2021/03/29 10:04:43;;;;;;;6.30;2.20;;;;;;;;;;5023696;28;20121;-61
2021/03/29 10:07:15;;;;;;;6.28;2.20;;;;;;;;;;5024298;28;20053;-61
2021/03/29 10:09:46;;;;;;;8.43;2.10;;;;;;;;;;5022341;28;20053;-61
2021/03/29 10:12:24;;;;;;;6.55;2.00;;;;;;;;;;5023644;28;20041;-61
2021/03/29 10:14:52;;;;;;;4.18;1.83;;;;;;;;;;5021029;28;20584;-61
2021/03/29 10:17:20;;;;;;;4.25;1.90;;;;;;;;;;5023964;28;20449;-60
2021/03/29 10:19:49;;;;;;;5.60;2.03;;;;;;;;;;5012380;28;20103;-61
2021/03/29 10:22:18;;;;;;;6.40;2.58;;;;;;;;;;5022450;28;20049;-61
2021/03/29 10:24:59;;;;;;;6.78;2.60;;;;;;;;;;5015807;28;20052;-60
2021/03/29 10:27:37;;;;;;;3.03;1.85;;;;;;;;;;5023758;28;20113;-60
2021/03/29 10:30:06;;;;;;;5.90;1.90;;;;;;;;;;5008313;28;20045;-61
2021/03/29 10:32:37;;;;;;;8.05;2.55;;;;;;;;;;5022409;28;20051;-62
2021/03/29 10:35:06;;;;;;;6.32;1.70;;;;;;;;;;5024456;28;20409;-62
2021/03/29 10:37:34;;;;;;;3.65;1.95;;;;;;;;;;5011645;28;20143;-62
2021/03/29 10:40:03;;;;;;;6.53;2.03;;;;;;;;;;5018943;28;20057;-62
2021/03/29 10:42:34;;;;;;;5.18;1.90;;;;;;;;;;5023657;28;20041;-60
2021/03/29 10:45:04;;;;;;;6.35;2.00;;;;;;;;;;5024694;28;20080;-61
2021/03/29 10:47:31;;;;;;;4.20;1.70;;;;;;;;;;5024491;28;20049;-61
2021/03/29 10:49:59;;;;;;;3.72;1.67;;;;;;;;;;5024478;28;20049;-61
2021/03/29 10:52:28;;;;;;;5.25;2.10;;;;;;;;;;5025018;28;20045;-61
2021/03/29 10:54:56;;;;;;;6.80;1.98;;;;;;;;;;5020224;28;20049;-61
2021/03/29 10:57:24;;;;;;;5.75;1.70;;;;;;;;;;5019310;28;20057;-61
2021/03/29 10:59:52;;;;;;;5.13;1.90;;;;;;;;;;5024674;28;20048;-61
2021/03/29 11:02:23;;;;;;;7.05;2.67;;;;;;;;;;5010823;28;20087;-63
2021/03/29 11:04:51;;;;;;;5.95;2.05;;;;;;;;;;5024598;28;20246;-62
2021/03/29 11:07:19;;;;;;;7.35;2.40;;;;;;;;;;5016935;28;20049;-61
2021/03/29 11:09:49;;;;;;;9.50;2.70;;;;;;;;;;5022728;28;20049;-61
2021/03/29 11:12:16;;;;;;;9.70;2.40;;;;;;;;;;5025357;28;20609;-61
2021/03/29 11:14:44;;;;;;;4.78;1.90;;;;;;;;;;5025774;28;20080;-61
2021/03/29 11:17:12;;;;;;;5.70;2.20;;;;;;;;;;5021637;28;20277;-62
2021/03/29 11:19:41;;;;;;;4.00;2.25;;;;;;;;;;5024256;28;20124;-61
2021/03/29 11:22:09;;;;;;;8.98;2.42;;;;;;;;;;5023770;28;20489;-60
2021/03/29 11:24:36;;;;;;;6.18;2.08;;;;;;;;;;5020925;28;20071;-61
2021/03/29 11:27:05;;;;;;;5.50;1.70;;;;;;;;;;5019626;28;20104;-61
2021/03/29 11:29:33;;;;;;;6.63;2.45;;;;;;;;;;5012656;28;20053;-61
2021/03/29 11:32:01;;;;;;;4.00;1.60;;;;;;;;;;5021994;28;20520;-61
2021/03/29 11:34:29;;;;;;;8.80;2.13;;;;;;;;;;5013124;28;20130;-61
2021/03/29 11:36:57;;;;;;;6.20;2.45;;;;;;;;;;5015634;28;20060;-61
2021/03/29 11:39:25;;;;;;;3.67;2.00;;;;;;;;;;5008380;28;20049;-61
2021/03/29 11:41:53;;;;;;;5.47;1.60;;;;;;;;;;5007402;28;20049;-61
2021/03/29 11:44:21;;;;;;;5.47;1.52;;;;;;;;;;5024321;28;20055;-61
2021/03/29 11:46:48;;;;;;;3.42;1.75;;;;;;;;;;5026075;28;20045;-61
2021/03/29 11:49:16;;;;;;;5.00;2.03;;;;;;;;;;5010957;28;20046;-61
2021/03/29 11:51:44;;;;;;;4.72;1.90;;;;;;;;;;5023368;28;20041;-61
2021/03/29 11:54:11;;;;;;;4.43;1.70;;;;;;;;;;5023792;28;20052;-61
2021/03/29 11:56:39;;;;;;;4.55;1.70;;;;;;;;;;5028586;28;20113;-61
2021/03/29 11:59:07;;;;;;;4.70;2.33;;;;;;;;;;5015420;28;20567;-61
2021/03/29 12:01:47;;;;;;;6.13;1.80;;;;;;;;;;5022380;28;20618;-61
2021/03/29 12:04:21;;;;;;;6.20;1.40;;;;;;;;;;5022371;28;20128;-61
2021/03/29 12:06:51;;;;;;;4.57;1.42;;;;;;;;;;5013463;28;20050;-61
2021/03/29 12:09:27;;;;;;;7.03;1.75;;;;;;;;;;5026428;28;20111;-61
2021/03/29 12:12:04;;;;;;;5.07;1.60;;;;;;;;;;5027284;28;20080;-61
2021/03/29 12:14:32;;;;;;;4.80;1.40;;;;;;;;;;5019150;28;20049;-61
2021/03/29 12:17:02;;;;;;;2.92;1.30;;;;;;;;;;5037346;28;20049;-61
2021/03/29 12:19:30;;;;;;;9.73;2.58;;;;;;;;;;5020157;28;20488;-61
2021/03/29 12:21:59;;;;;;;5.88;1.90;;;;;;;;;;5027293;28;20499;-61
2021/03/29 12:24:29;;;;;;;4.20;2.08;;;;;;;;;;5019594;28;20049;-61
2021/03/29 12:27:00;;;;;;;6.07;1.90;;;;;;;;;;5017192;28;20049;-61
2021/03/29 12:29:36;;;;;;;5.15;1.90;;;;;;;;;;5020974;28;20377;-61
2021/03/29 12:32:05;;;;;;;5.22;1.50;;;;;;;;;;5019781;28;20056;-62
2021/03/29 12:34:34;;;;;;;3.38;1.80;;;;;;;;;;5016118;28;20045;-61
2021/03/29 12:37:03;;;;;;;7.13;1.80;;;;;;;;;;5024859;28;20099;-61
2021/03/29 12:39:33;;;;;;;7.05;2.03;;;;;;;;;;5028093;28;20049;-61
2021/03/29 12:42:02;;;;;;;3.30;1.92;;;;;;;;;;5027512;28;20049;-61
2021/03/29 12:44:33;;;;;;;4.43;1.70;;;;;;;;;;5027146;28;20424;-61
2021/03/29 12:47:04;;;;;;;5.22;2.10;;;;;;;;;;5026982;28;20045;-61
2021/03/29 12:49:32;;;;;;;4.93;2.10;;;;;;;;;;5027046;28;20084;-61
2021/03/29 12:52:02;;;;;;;6.18;2.58;;;;;;;;;;5024591;28;20037;-61
2021/03/29 12:54:31;;;;;;;8.07;2.17;;;;;;;;;;5019645;28;20520;-61
2021/03/29 12:56:59;;;;;;;4.50;1.70;;;;;;;;;;5023337;28;20057;-61
2021/03/29 12:59:28;;;;;;;6.75;1.73;;;;;;;;;;5025714;28;20135;-61
2021/03/29 13:01:56;;;;;;;4.38;1.98;;;;;;;;;;5026548;28;20053;-61
2021/03/29 13:04:27;;;;;;;6.72;2.70;;;;;;;;;;5026496;28;20089;-61
2021/03/29 13:07:16;;;;;;;5.72;2.05;;;;;;;;;;5026654;28;20062;-60
2021/03/29 13:09:50;;;;;;;6.30;1.98;;;;;;;;;;5024819;28;20057;-61
2021/03/29 13:12:19;;;;;;;5.43;1.85;;;;;;;;;;5027029;28;20053;-61
2021/03/29 13:14:59;;;;;;;4.90;1.85;;;;;;;;;;5024939;28;20312;-61
2021/03/29 13:17:27;;;;;;;6.15;2.00;;;;;;;;;;5019308;28;20054;-62
2021/03/29 13:19:55;;;;;;;5.30;1.83;;;;;;;;;;5026353;28;20060;-62
2021/03/29 13:22:23;;;;;;;5.18;1.80;;;;;;;;;;5028113;28;20042;-61
2021/03/29 13:24:51;;;;;;;7.78;1.70;;;;;;;;;;5023187;28;20049;-62
2021/03/29 13:27:20;;;;;;;6.97;2.47;;;;;;;;;;5026011;28;20136;-61
2021/03/29 13:29:56;;;;;;;4.13;2.05;;;;;;;;;;5026846;28;20068;-61
2021/03/29 13:32:25;;;;;;;8.18;1.80;;;;;;;;;;5026354;28;20484;-62
2021/03/29 13:34:52;;;;;;;6.07;1.95;;;;;;;;;;5014175;28;20094;-61
2021/03/29 13:37:21;;;;;;;4.45;1.90;;;;;;;;;;5026504;28;20081;-61
2021/03/29 13:39:51;;;;;;;5.50;1.83;;;;;;;;;;5027009;28;20045;-61
2021/03/29 13:42:19;;;;;;;4.57;2.10;;;;;;;;;;5026188;28;20048;-61
2021/03/29 13:44:48;;;;;;;4.53;1.67;;;;;;;;;;5026145;28;20461;-61
2021/03/29 13:47:16;;;;;;;7.47;2.10;;;;;;;;;;5022753;28;20081;-61
2021/03/29 13:49:44;;;;;;;4.65;1.48;;;;;;;;;;5025199;28;20640;-61
2021/03/29 13:52:15;;;;;;;4.57;1.75;;;;;;;;;;5026280;28;20156;-62
2021/03/29 13:54:46;;;;;;;5.93;2.33;;;;;;;;;;5026406;28;20060;-61
2021/03/29 13:57:14;;;;;;;8.18;1.88;;;;;;;;;;5023509;28;20494;-61
2021/03/29 13:59:44;;;;;;;3.50;2.20;;;;;;;;;;5022818;28;20049;-61
2021/03/29 14:02:12;;;;;;;5.13;2.00;;;;;;;;;;5015840;28;20384;-61
2021/03/29 14:04:59;;;;;;;3.67;2.00;;;;;;;;;;1974104;28;10022863;-61
2021/03/29 14:07:27;;;;;;;5.43;1.70;;;;;;;;;;3981390;28;10001597;-61
2021/03/29 14:09:56;;;;;;;4.13;2.08;;;;;;;;;;5025188;28;20083;-61
2021/03/29 14:12:25;;;;;;;5.32;1.90;;;;;;;;;;5022175;28;20384;-61
2021/03/29 14:14:54;;;;;;;5.00;2.30;;;;;;;;;;5025602;28;20137;-60
2021/03/29 14:17:23;;;;;;;4.72;1.95;;;;;;;;;;5016400;28;20077;-60
2021/03/29 14:19:51;;;;;;;8.55;2.60;;;;;;;;;;5026390;28;20041;-60
2021/03/29 14:22:20;;;;;;;6.90;2.20;;;;;;;;;;5023805;28;20048;-61
2021/03/29 14:24:49;;;;;;;3.20;2.05;;;;;;;;;;5023367;28;20527;-61
2021/03/29 14:27:17;;;;;;;4.47;1.95;;;;;;;;;;5023296;28;20072;-61
2021/03/29 14:29:46;;;;;;;6.85;2.00;;;;;;;;;;5014437;28;20495;-61
2021/03/29 14:32:16;;;;;;;4.93;1.73;;;;;;;;;;5025498;28;20144;-61
2021/03/29 14:34:48;;;;;;;3.20;1.50;;;;;;;;;;5025174;28;20103;-61
2021/03/29 14:40:04;;;;;;;4.47;2.20;;;;;;;;;;5025441;28;20053;-61
2021/03/29 14:42:41;;;;;;;6.20;1.83;;;;;;;;;;5026181;28;20570;-61
2021/03/29 14:45:11;;;;;;;5.80;1.73;;;;;;;;;;5025279;28;20041;-61
2021/03/29 14:47:39;;;;;;;6.15;2.40;;;;;;;;;;5025217;28;20413;-61
2021/03/29 14:50:08;;;;;;;8.05;2.13;;;;;;;;;;5026556;28;20457;-61
2021/03/29 14:52:39;;;;;;;4.88;2.00;;;;;;;;;;5025760;28;20045;-61
2021/03/29 14:55:09;;;;;;;8.50;2.60;;;;;;;;;;5024075;28;20053;-62
2021/03/29 14:57:37;;;;;;;5.07;1.98;;;;;;;;;;5019285;28;20060;-61